sensor_id;sensor_type;location;lat;lon;timestamp;P1;durP1;ratioP1;P2;durP2;ratioP2
2564;SDS011;1292;48.020;7.822;2022-10-19T05:46:10;10.60;;;6.67;;
2564;SDS011;1292;48.020;7.822;2022-10-19T05:48:39;16.97;;;7.23;;
2564;SDS011;1292;48.020;7.822;2022-10-19T05:51:07;14.67;;;7.20;;
2564;SDS011;1292;48.020;7.822;2022-10-19T05:53:37;49.73;;;7.17;;
2564;SDS011;1292;48.020;7.822;2022-10-19T05:56:04;38.43;;;7.63;;
2564;SDS011;1292;48.020;7.822;2022-10-19T05:58:32;11.23;;;6.40;;
2564;SDS011;1292;48.020;7.822;2022-10-19T06:01:02;20.33;;;6.87;;
2564;SDS011;1292;48.020;7.822;2022-10-19T06:03:31;10.53;;;5.63;;
2564;SDS011;1292;48.020;7.822;2022-10-19T06:06:00;6.40;;;5.80;;
2564;SDS011;1292;48.020;7.822;2022-10-19T06:08:28;13.47;;;6.40;;
2564;SDS011;1292;48.020;7.822;2022-10-19T06:11:02;9.53;;;5.40;;
2564;SDS011;1292;48.020;7.822;2022-10-19T06:13:30;25.93;;;6.27;;
2564;SDS011;1292;48.020;7.822;2022-10-19T06:15:57;7.63;;;5.80;;
2564;SDS011;1292;48.020;7.822;2022-10-19T06:18:24;8.70;;;7.43;;
2564;SDS011;1292;48.020;7.822;2022-10-19T06:20:52;7.27;;;5.90;;
2564;SDS011;1292;48.020;7.822;2022-10-19T06:23:19;8.33;;;6.47;;
2564;SDS011;1292;48.020;7.822;2022-10-19T06:25:46;8.90;;;5.40;;
2564;SDS011;1292;48.020;7.822;2022-10-19T06:28:13;6.17;;;5.57;;
2564;SDS011;1292;48.020;7.822;2022-10-19T06:30:40;7.37;;;6.60;;
2564;SDS011;1292;48.020;7.822;2022-10-19T06:33:07;5.80;;;5.17;;
2564;SDS011;1292;48.020;7.822;2022-10-19T06:35:34;18.80;;;6.47;;
2564;SDS011;1292;48.020;7.822;2022-10-19T06:38:02;14.20;;;6.53;;
2564;SDS011;1292;48.020;7.822;2022-10-19T06:40:29;7.33;;;5.13;;
2564;SDS011;1292;48.020;7.822;2022-10-19T06:42:56;14.83;;;6.77;;
2564;SDS011;1292;48.020;7.822;2022-10-19T06:45:23;10.07;;;7.33;;
2564;SDS011;1292;48.020;7.822;2022-10-19T06:47:50;18.13;;;6.00;;
2564;SDS011;1292;48.020;7.822;2022-10-19T06:50:17;10.47;;;6.30;;
2564;SDS011;1292;48.020;7.822;2022-10-19T06:52:44;13.13;;;6.77;;
2564;SDS011;1292;48.020;7.822;2022-10-19T06:55:13;10.23;;;7.27;;
2564;SDS011;1292;48.020;7.822;2022-10-19T06:57:41;7.60;;;6.80;;
2564;SDS011;1292;48.020;7.822;2022-10-19T07:00:09;8.27;;;5.47;;
2564;SDS011;1292;48.020;7.822;2022-10-19T07:02:37;7.67;;;5.97;;
2564;SDS011;1292;48.020;7.822;2022-10-19T07:05:04;9.70;;;6.03;;
2564;SDS011;1292;48.020;7.822;2022-10-19T07:07:32;8.97;;;5.50;;
2564;SDS011;1292;48.020;7.822;2022-10-19T07:09:59;10.07;;;5.50;;
2564;SDS011;1292;48.020;7.822;2022-10-19T07:12:27;11.37;;;6.77;;
2564;SDS011;1292;48.020;7.822;2022-10-19T07:14:54;8.90;;;6.93;;
2564;SDS011;1292;48.020;7.822;2022-10-19T07:17:22;8.67;;;6.00;;
2564;SDS011;1292;48.020;7.822;2022-10-19T07:19:49;7.40;;;6.50;;
2564;SDS011;1292;48.020;7.822;2022-10-19T07:22:15;7.73;;;6.13;;
2564;SDS011;1292;48.020;7.822;2022-10-19T07:24:42;6.37;;;5.77;;
2564;SDS011;1292;48.020;7.822;2022-10-19T07:27:09;12.47;;;5.70;;
2564;SDS011;1292;48.020;7.822;2022-10-19T07:29:37;8.40;;;5.43;;
2564;SDS011;1292;48.020;7.822;2022-10-19T07:32:04;8.03;;;6.97;;
2564;SDS011;1292;48.020;7.822;2022-10-19T07:34:31;7.80;;;6.30;;
2564;SDS011;1292;48.020;7.822;2022-10-19T07:36:58;6.47;;;5.20;;
2564;SDS011;1292;48.020;7.822;2022-10-19T07:39:25;7.03;;;6.00;;
2564;SDS011;1292;48.020;7.822;2022-10-19T07:41:52;12.47;;;6.30;;
2564;SDS011;1292;48.020;7.822;2022-10-19T07:44:19;8.80;;;5.90;;
2564;SDS011;1292;48.020;7.822;2022-10-19T07:46:47;7.90;;;5.73;;
2564;SDS011;1292;48.020;7.822;2022-10-19T07:49:14;7.47;;;6.77;;
2564;SDS011;1292;48.020;7.822;2022-10-19T07:51:45;8.23;;;5.83;;
2564;SDS011;1292;48.020;7.822;2022-10-19T07:54:23;9.17;;;6.70;;
2564;SDS011;1292;48.020;7.822;2022-10-19T07:56:51;8.67;;;6.23;;
2564;SDS011;1292;48.020;7.822;2022-10-19T07:59:18;6.80;;;5.70;;
2564;SDS011;1292;48.020;7.822;2022-10-19T08:01:46;8.57;;;6.83;;
2564;SDS011;1292;48.020;7.822;2022-10-19T08:04:15;16.90;;;6.80;;
2564;SDS011;1292;48.020;7.822;2022-10-19T08:06:42;7.87;;;6.10;;
2564;SDS011;1292;48.020;7.822;2022-10-19T08:09:08;9.70;;;6.13;;
2564;SDS011;1292;48.020;7.822;2022-10-19T08:11:35;8.13;;;6.77;;
2564;SDS011;1292;48.020;7.822;2022-10-19T08:14:02;7.93;;;7.10;;
2564;SDS011;1292;48.020;7.822;2022-10-19T08:16:31;6.70;;;6.00;;
2564;SDS011;1292;48.020;7.822;2022-10-19T08:19:02;6.40;;;5.73;;
2564;SDS011;1292;48.020;7.822;2022-10-19T08:21:31;7.40;;;5.40;;
2564;SDS011;1292;48.020;7.822;2022-10-19T08:23:58;8.30;;;6.43;;
2564;SDS011;1292;48.020;7.822;2022-10-19T08:26:26;9.13;;;5.47;;
2564;SDS011;1292;48.020;7.822;2022-10-19T08:28:57;6.57;;;5.93;;
2564;SDS011;1292;48.020;7.822;2022-10-19T08:31:24;6.83;;;5.70;;
2564;SDS011;1292;48.020;7.822;2022-10-19T08:33:51;7.27;;;6.10;;
2564;SDS011;1292;48.020;7.822;2022-10-19T08:36:19;10.30;;;6.50;;
2564;SDS011;1292;48.020;7.822;2022-10-19T08:38:47;7.50;;;6.33;;
2564;SDS011;1292;48.020;7.822;2022-10-19T08:41:20;7.37;;;6.57;;
2564;SDS011;1292;48.020;7.822;2022-10-19T08:43:55;8.30;;;6.50;;
2564;SDS011;1292;48.020;7.822;2022-10-19T08:46:32;8.90;;;6.87;;
2564;SDS011;1292;48.020;7.822;2022-10-19T08:49:11;7.20;;;6.00;;
2564;SDS011;1292;48.020;7.822;2022-10-19T08:51:44;6.57;;;5.50;;
2564;SDS011;1292;48.020;7.822;2022-10-19T08:54:16;8.40;;;6.40;;
2564;SDS011;1292;48.020;7.822;2022-10-19T08:56:45;6.10;;;5.13;;
2564;SDS011;1292;48.020;7.822;2022-10-19T08:59:22;6.90;;;5.73;;
2564;SDS011;1292;48.020;7.822;2022-10-19T09:01:55;8.83;;;5.70;;
2564;SDS011;1292;48.020;7.822;2022-10-19T09:04:25;6.77;;;5.57;;
2564;SDS011;1292;48.020;7.822;2022-10-19T09:07:02;8.27;;;6.20;;
2564;SDS011;1292;48.020;7.822;2022-10-19T09:09:45;8.60;;;6.80;;
2564;SDS011;1292;48.020;7.822;2022-10-19T09:12:17;7.50;;;6.43;;
2564;SDS011;1292;48.020;7.822;2022-10-19T09:14:50;8.23;;;6.67;;
2564;SDS011;1292;48.020;7.822;2022-10-19T09:17:22;7.53;;;5.63;;
2564;SDS011;1292;48.020;7.822;2022-10-19T09:19:50;7.00;;;6.30;;
2564;SDS011;1292;48.020;7.822;2022-10-19T09:22:19;8.07;;;6.87;;
2564;SDS011;1292;48.020;7.822;2022-10-19T09:24:49;6.40;;;5.50;;
2564;SDS011;1292;48.020;7.822;2022-10-19T09:27:19;10.13;;;6.63;;
2564;SDS011;1292;48.020;7.822;2022-10-19T09:29:48;7.53;;;6.03;;
2564;SDS011;1292;48.020;7.822;2022-10-19T09:32:19;9.43;;;7.37;;
2564;SDS011;1292;48.020;7.822;2022-10-19T09:34:50;8.63;;;7.00;;
2564;SDS011;1292;48.020;7.822;2022-10-19T09:37:20;7.80;;;6.10;;
2564;SDS011;1292;48.020;7.822;2022-10-19T09:39:48;8.00;;;6.83;;
2564;SDS011;1292;48.020;7.822;2022-10-19T09:42:16;11.50;;;7.33;;
2564;SDS011;1292;48.020;7.822;2022-10-19T09:44:48;9.77;;;7.53;;
2564;SDS011;1292;48.020;7.822;2022-10-19T09:47:31;7.83;;;7.03;;
2564;SDS011;1292;48.020;7.822;2022-10-19T09:50:07;9.13;;;7.40;;
2564;SDS011;1292;48.020;7.822;2022-10-19T09:52:42;9.70;;;6.90;;
2564;SDS011;1292;48.020;7.822;2022-10-19T09:55:17;8.60;;;7.47;;
2564;SDS011;1292;48.020;7.822;2022-10-19T09:57:57;11.40;;;6.80;;
2564;SDS011;1292;48.020;7.822;2022-10-19T10:00:30;11.03;;;7.67;;
2564;SDS011;1292;48.020;7.822;2022-10-19T10:02:59;11.50;;;8.00;;
2564;SDS011;1292;48.020;7.822;2022-10-19T10:05:28;10.90;;;8.23;;
2564;SDS011;1292;48.020;7.822;2022-10-19T10:07:58;15.13;;;8.50;;
2564;SDS011;1292;48.020;7.822;2022-10-19T10:10:27;11.00;;;8.53;;
2564;SDS011;1292;48.020;7.822;2022-10-19T10:12:58;10.20;;;7.60;;
2564;SDS011;1292;48.020;7.822;2022-10-19T10:15:27;9.07;;;7.40;;
2564;SDS011;1292;48.020;7.822;2022-10-19T10:18:00;9.30;;;7.93;;
2564;SDS011;1292;48.020;7.822;2022-10-19T10:20:28;11.67;;;7.37;;
2564;SDS011;1292;48.020;7.822;2022-10-19T10:22:57;9.53;;;8.30;;
2564;SDS011;1292;48.020;7.822;2022-10-19T10:25:28;9.00;;;8.00;;
2564;SDS011;1292;48.020;7.822;2022-10-19T10:27:57;10.13;;;8.03;;
2564;SDS011;1292;48.020;7.822;2022-10-19T10:30:28;9.87;;;8.13;;
2564;SDS011;1292;48.020;7.822;2022-10-19T10:32:59;8.10;;;7.30;;
2564;SDS011;1292;48.020;7.822;2022-10-19T10:35:28;8.73;;;7.50;;
2564;SDS011;1292;48.020;7.822;2022-10-19T10:38:05;10.30;;;7.73;;
2564;SDS011;1292;48.020;7.822;2022-10-19T10:40:35;8.57;;;7.30;;
2564;SDS011;1292;48.020;7.822;2022-10-19T10:43:04;9.03;;;7.33;;
2564;SDS011;1292;48.020;7.822;2022-10-19T10:45:35;11.07;;;7.97;;
2564;SDS011;1292;48.020;7.822;2022-10-19T10:48:11;9.93;;;8.10;;
2564;SDS011;1292;48.020;7.822;2022-10-19T10:50:45;9.77;;;8.50;;
2564;SDS011;1292;48.020;7.822;2022-10-19T10:53:34;10.60;;;8.13;;
2564;SDS011;1292;48.020;7.822;2022-10-19T10:56:02;9.60;;;7.57;;
2564;SDS011;1292;48.020;7.822;2022-10-19T10:58:34;8.70;;;7.80;;
2564;SDS011;1292;48.020;7.822;2022-10-19T11:01:11;8.97;;;7.63;;
2564;SDS011;1292;48.020;7.822;2022-10-19T11:03:45;9.40;;;7.23;;
2564;SDS011;1292;48.020;7.822;2022-10-19T11:06:16;12.07;;;8.47;;
2564;SDS011;1292;48.020;7.822;2022-10-19T11:08:49;13.63;;;8.00;;
2564;SDS011;1292;48.020;7.822;2022-10-19T11:11:24;8.50;;;6.90;;
2564;SDS011;1292;48.020;7.822;2022-10-19T11:13:58;12.30;;;8.10;;
2564;SDS011;1292;48.020;7.822;2022-10-19T11:16:30;10.10;;;8.60;;
2564;SDS011;1292;48.020;7.822;2022-10-19T11:19:01;13.07;;;9.50;;
2564;SDS011;1292;48.020;7.822;2022-10-19T11:21:40;12.57;;;9.70;;
2564;SDS011;1292;48.020;7.822;2022-10-19T11:24:17;13.57;;;9.33;;
2564;SDS011;1292;48.020;7.822;2022-10-19T11:26:54;17.67;;;10.43;;
2564;SDS011;1292;48.020;7.822;2022-10-19T11:29:36;12.73;;;9.70;;
2564;SDS011;1292;48.020;7.822;2022-10-19T11:32:15;12.57;;;9.57;;
2564;SDS011;1292;48.020;7.822;2022-10-19T11:34:52;13.57;;;10.63;;
2564;SDS011;1292;48.020;7.822;2022-10-19T11:37:27;13.37;;;10.10;;
2564;SDS011;1292;48.020;7.822;2022-10-19T11:40:04;14.97;;;9.47;;
2564;SDS011;1292;48.020;7.822;2022-10-19T11:42:41;14.20;;;8.83;;
2564;SDS011;1292;48.020;7.822;2022-10-19T11:45:21;13.93;;;9.93;;
2564;SDS011;1292;48.020;7.822;2022-10-19T11:48:00;11.00;;;9.20;;
2564;SDS011;1292;48.020;7.822;2022-10-19T11:50:50;10.97;;;8.80;;
2564;SDS011;1292;48.020;7.822;2022-10-19T11:53:22;12.63;;;9.17;;
2564;SDS011;1292;48.020;7.822;2022-10-19T11:56:00;14.40;;;10.13;;
2564;SDS011;1292;48.020;7.822;2022-10-19T11:58:35;14.50;;;10.30;;
2564;SDS011;1292;48.020;7.822;2022-10-19T12:01:11;9.30;;;8.00;;
2564;SDS011;1292;48.020;7.822;2022-10-19T12:06:47;12.97;;;9.93;;
2564;SDS011;1292;48.020;7.822;2022-10-19T12:09:26;18.00;;;12.67;;
2564;SDS011;1292;48.020;7.822;2022-10-19T12:12:10;12.50;;;10.13;;
2564;SDS011;1292;48.020;7.822;2022-10-19T12:14:47;13.33;;;9.60;;
2564;SDS011;1292;48.020;7.822;2022-10-19T12:17:17;14.00;;;10.47;;
2564;SDS011;1292;48.020;7.822;2022-10-19T12:19:52;17.80;;;11.47;;
2564;SDS011;1292;48.020;7.822;2022-10-19T12:22:24;17.80;;;12.83;;
2564;SDS011;1292;48.020;7.822;2022-10-19T12:24:53;10.73;;;9.50;;
2564;SDS011;1292;48.020;7.822;2022-10-19T12:27:25;11.90;;;9.93;;
2564;SDS011;1292;48.020;7.822;2022-10-19T12:29:57;18.90;;;13.20;;
2564;SDS011;1292;48.020;7.822;2022-10-19T12:32:29;15.10;;;10.00;;
2564;SDS011;1292;48.020;7.822;2022-10-19T12:35:03;14.20;;;11.73;;
2564;SDS011;1292;48.020;7.822;2022-10-19T12:37:42;12.87;;;9.87;;
2564;SDS011;1292;48.020;7.822;2022-10-19T12:40:17;15.70;;;12.40;;
2564;SDS011;1292;48.020;7.822;2022-10-19T12:42:53;17.27;;;13.10;;
2564;SDS011;1292;48.020;7.822;2022-10-19T12:45:26;15.07;;;11.10;;
2564;SDS011;1292;48.020;7.822;2022-10-19T12:53:42;14.73;;;12.83;;
2564;SDS011;1292;48.020;7.822;2022-10-19T12:56:14;12.93;;;11.17;;
2564;SDS011;1292;48.020;7.822;2022-10-19T12:58:47;16.43;;;12.03;;
2564;SDS011;1292;48.020;7.822;2022-10-19T13:01:18;16.47;;;14.10;;
2564;SDS011;1292;48.020;7.822;2022-10-19T13:03:49;16.27;;;11.93;;
2564;SDS011;1292;48.020;7.822;2022-10-19T13:06:28;17.83;;;11.63;;
2564;SDS011;1292;48.020;7.822;2022-10-19T13:08:58;13.00;;;10.67;;
2564;SDS011;1292;48.020;7.822;2022-10-19T13:11:27;15.60;;;11.00;;
2564;SDS011;1292;48.020;7.822;2022-10-19T13:14:00;13.97;;;10.87;;
2564;SDS011;1292;48.020;7.822;2022-10-19T13:16:39;16.60;;;13.20;;
2564;SDS011;1292;48.020;7.822;2022-10-19T13:19:21;16.40;;;13.00;;
2564;SDS011;1292;48.020;7.822;2022-10-19T13:21:49;19.63;;;15.00;;
2564;SDS011;1292;48.020;7.822;2022-10-19T13:24:33;18.27;;;14.00;;
2564;SDS011;1292;48.020;7.822;2022-10-19T13:29:53;16.07;;;12.40;;
2564;SDS011;1292;48.020;7.822;2022-10-19T13:32:30;14.80;;;11.90;;
2564;SDS011;1292;48.020;7.822;2022-10-19T13:40:58;12.90;;;11.17;;
2564;SDS011;1292;48.020;7.822;2022-10-19T13:43:29;17.10;;;11.97;;
2564;SDS011;1292;48.020;7.822;2022-10-19T13:46:01;15.20;;;11.67;;
2564;SDS011;1292;48.020;7.822;2022-10-19T13:48:36;14.77;;;11.43;;
2564;SDS011;1292;48.020;7.822;2022-10-19T13:51:15;17.83;;;13.50;;
2564;SDS011;1292;48.020;7.822;2022-10-19T13:53:47;14.67;;;12.23;;
2564;SDS011;1292;48.020;7.822;2022-10-19T13:56:22;15.50;;;12.27;;
2564;SDS011;1292;48.020;7.822;2022-10-19T13:59:13;15.13;;;12.40;;
2564;SDS011;1292;48.020;7.822;2022-10-19T14:05:03;27.93;;;15.17;;
2564;SDS011;1292;48.020;7.822;2022-10-19T14:07:45;14.17;;;12.37;;
2564;SDS011;1292;48.020;7.822;2022-10-19T14:10:19;17.67;;;14.67;;
2564;SDS011;1292;48.020;7.822;2022-10-19T14:12:47;17.87;;;12.60;;
2564;SDS011;1292;48.020;7.822;2022-10-19T14:15:20;21.50;;;15.00;;
2564;SDS011;1292;48.020;7.822;2022-10-19T14:17:50;17.67;;;14.40;;
2564;SDS011;1292;48.020;7.822;2022-10-19T14:20:24;27.43;;;17.27;;
2564;SDS011;1292;48.020;7.822;2022-10-19T14:22:53;23.30;;;17.67;;
2564;SDS011;1292;48.020;7.822;2022-10-19T14:25:21;26.93;;;15.83;;
2564;SDS011;1292;48.020;7.822;2022-10-19T14:27:53;24.73;;;13.47;;
2564;SDS011;1292;48.020;7.822;2022-10-19T14:30:24;19.20;;;13.93;;
2564;SDS011;1292;48.020;7.822;2022-10-19T14:32:53;20.17;;;13.90;;
2564;SDS011;1292;48.020;7.822;2022-10-19T14:35:21;15.90;;;12.67;;
2564;SDS011;1292;48.020;7.822;2022-10-19T14:37:50;24.83;;;12.80;;
2564;SDS011;1292;48.020;7.822;2022-10-19T14:40:22;14.43;;;12.97;;
2564;SDS011;1292;48.020;7.822;2022-10-19T14:42:51;17.43;;;12.47;;
2564;SDS011;1292;48.020;7.822;2022-10-19T14:45:19;14.10;;;11.70;;
2564;SDS011;1292;48.020;7.822;2022-10-19T14:47:52;23.67;;;15.13;;
2564;SDS011;1292;48.020;7.822;2022-10-19T14:50:23;25.93;;;19.63;;
2564;SDS011;1292;48.020;7.822;2022-10-19T14:52:57;26.93;;;18.87;;
2564;SDS011;1292;48.020;7.822;2022-10-19T14:55:30;26.33;;;17.80;;
2564;SDS011;1292;48.020;7.822;2022-10-19T14:58:00;18.83;;;15.33;;
2564;SDS011;1292;48.020;7.822;2022-10-19T15:00:30;18.20;;;15.10;;
2564;SDS011;1292;48.020;7.822;2022-10-19T15:03:00;18.40;;;14.13;;
2564;SDS011;1292;48.020;7.822;2022-10-19T15:05:30;15.97;;;13.17;;
2564;SDS011;1292;48.020;7.822;2022-10-19T15:08:05;14.33;;;12.80;;
2564;SDS011;1292;48.020;7.822;2022-10-19T15:10:37;17.33;;;13.00;;
2564;SDS011;1292;48.020;7.822;2022-10-19T15:13:10;16.90;;;12.23;;
2564;SDS011;1292;48.020;7.822;2022-10-19T15:15:49;18.00;;;13.50;;
2564;SDS011;1292;48.020;7.822;2022-10-19T15:18:20;17.07;;;13.17;;
2564;SDS011;1292;48.020;7.822;2022-10-19T15:20:58;16.87;;;12.40;;
2564;SDS011;1292;48.020;7.822;2022-10-19T15:23:39;15.90;;;13.33;;
2564;SDS011;1292;48.020;7.822;2022-10-19T15:26:17;16.17;;;12.83;;
2564;SDS011;1292;48.020;7.822;2022-10-19T15:28:45;15.43;;;13.27;;
2564;SDS011;1292;48.020;7.822;2022-10-19T15:31:14;20.80;;;12.70;;
2564;SDS011;1292;48.020;7.822;2022-10-19T15:33:45;14.23;;;12.13;;
2564;SDS011;1292;48.020;7.822;2022-10-19T15:36:15;15.23;;;11.53;;
2564;SDS011;1292;48.020;7.822;2022-10-19T15:38:44;14.10;;;12.00;;
2564;SDS011;1292;48.020;7.822;2022-10-19T15:41:16;15.37;;;12.37;;
2564;SDS011;1292;48.020;7.822;2022-10-19T15:43:49;14.67;;;12.63;;
2564;SDS011;1292;48.020;7.822;2022-10-19T15:46:21;18.50;;;13.53;;
2564;SDS011;1292;48.020;7.822;2022-10-19T15:48:51;11.43;;;10.23;;
2564;SDS011;1292;48.020;7.822;2022-10-19T15:54:09;17.90;;;12.40;;
2564;SDS011;1292;48.020;7.822;2022-10-19T15:56:39;14.47;;;10.90;;
2564;SDS011;1292;48.020;7.822;2022-10-19T15:59:09;12.70;;;10.67;;
2564;SDS011;1292;48.020;7.822;2022-10-19T16:01:38;18.80;;;12.40;;
2564;SDS011;1292;48.020;7.822;2022-10-19T16:04:06;16.73;;;12.33;;
2564;SDS011;1292;48.020;7.822;2022-10-19T16:06:34;13.97;;;11.50;;
2564;SDS011;1292;48.020;7.822;2022-10-19T16:09:03;16.07;;;12.80;;
2564;SDS011;1292;48.020;7.822;2022-10-19T16:11:30;15.40;;;11.30;;
2564;SDS011;1292;48.020;7.822;2022-10-19T16:13:58;14.33;;;12.27;;
2564;SDS011;1292;48.020;7.822;2022-10-19T16:16:25;13.77;;;11.53;;
2564;SDS011;1292;48.020;7.822;2022-10-19T16:18:54;18.10;;;11.80;;
2564;SDS011;1292;48.020;7.822;2022-10-19T16:21:23;12.97;;;11.67;;
2564;SDS011;1292;48.020;7.822;2022-10-19T16:23:52;14.43;;;11.87;;
2564;SDS011;1292;48.020;7.822;2022-10-19T16:26:19;15.50;;;11.83;;
2564;SDS011;1292;48.020;7.822;2022-10-19T16:28:46;20.33;;;12.17;;
2564;SDS011;1292;48.020;7.822;2022-10-19T16:31:14;13.43;;;11.20;;
2564;SDS011;1292;48.020;7.822;2022-10-19T16:33:40;17.73;;;11.67;;
2564;SDS011;1292;48.020;7.822;2022-10-19T16:36:08;12.87;;;11.47;;
2564;SDS011;1292;48.020;7.822;2022-10-19T16:38:36;16.60;;;12.07;;
2564;SDS011;1292;48.020;7.822;2022-10-19T16:41:03;12.17;;;10.43;;
2564;SDS011;1292;48.020;7.822;2022-10-19T16:43:31;12.13;;;10.73;;
2564;SDS011;1292;48.020;7.822;2022-10-19T16:45:59;22.03;;;11.83;;
2564;SDS011;1292;48.020;7.822;2022-10-19T16:48:26;13.63;;;12.13;;
2564;SDS011;1292;48.020;7.822;2022-10-19T16:53:58;11.90;;;10.57;;
2564;SDS011;1292;48.020;7.822;2022-10-19T16:56:26;12.77;;;11.47;;
2564;SDS011;1292;48.020;7.822;2022-10-19T16:58:55;11.47;;;10.37;;
2564;SDS011;1292;48.020;7.822;2022-10-19T17:01:23;13.63;;;10.50;;
2564;SDS011;1292;48.020;7.822;2022-10-19T17:03:53;14.23;;;12.77;;
2564;SDS011;1292;48.020;7.822;2022-10-19T17:06:20;12.60;;;11.33;;
2564;SDS011;1292;48.020;7.822;2022-10-19T17:08:48;14.50;;;9.50;;
2564;SDS011;1292;48.020;7.822;2022-10-19T17:11:16;11.80;;;10.60;;
2564;SDS011;1292;48.020;7.822;2022-10-19T17:13:45;15.73;;;11.83;;
2564;SDS011;1292;48.020;7.822;2022-10-19T17:16:14;13.00;;;11.10;;
2564;SDS011;1292;48.020;7.822;2022-10-19T17:18:41;11.07;;;10.00;;
2564;SDS011;1292;48.020;7.822;2022-10-19T17:21:09;13.20;;;9.50;;
2564;SDS011;1292;48.020;7.822;2022-10-19T17:23:37;11.60;;;9.87;;
2564;SDS011;1292;48.020;7.822;2022-10-19T17:26:05;15.37;;;10.63;;
2564;SDS011;1292;48.020;7.822;2022-10-19T17:28:34;14.33;;;10.70;;
2564;SDS011;1292;48.020;7.822;2022-10-19T17:31:02;12.77;;;11.23;;
2564;SDS011;1292;48.020;7.822;2022-10-19T17:33:30;14.37;;;12.40;;
2564;SDS011;1292;48.020;7.822;2022-10-19T17:36:05;15.07;;;13.20;;
2564;SDS011;1292;48.020;7.822;2022-10-19T17:38:33;18.07;;;12.73;;
2564;SDS011;1292;48.020;7.822;2022-10-19T17:41:01;17.93;;;12.23;;
2564;SDS011;1292;48.020;7.822;2022-10-19T17:43:30;17.43;;;11.70;;
2564;SDS011;1292;48.020;7.822;2022-10-19T17:45:58;15.07;;;11.70;;
2564;SDS011;1292;48.020;7.822;2022-10-19T17:48:26;16.37;;;12.37;;
2564;SDS011;1292;48.020;7.822;2022-10-19T17:50:57;16.00;;;12.53;;
2564;SDS011;1292;48.020;7.822;2022-10-19T17:53:25;14.30;;;12.00;;
2564;SDS011;1292;48.020;7.822;2022-10-19T17:55:53;21.77;;;14.03;;
2564;SDS011;1292;48.020;7.822;2022-10-19T17:58:20;22.33;;;13.00;;
2564;SDS011;1292;48.020;7.822;2022-10-19T18:00:51;15.27;;;11.27;;
2564;SDS011;1292;48.020;7.822;2022-10-19T18:03:20;15.90;;;12.10;;
2564;SDS011;1292;48.020;7.822;2022-10-19T18:05:54;15.67;;;11.53;;
2564;SDS011;1292;48.020;7.822;2022-10-19T18:08:22;17.87;;;11.23;;
2564;SDS011;1292;48.020;7.822;2022-10-19T18:10:52;14.83;;;9.90;;
2564;SDS011;1292;48.020;7.822;2022-10-19T18:13:21;14.00;;;10.90;;
2564;SDS011;1292;48.020;7.822;2022-10-19T18:15:48;12.67;;;10.50;;
2564;SDS011;1292;48.020;7.822;2022-10-19T18:18:15;15.70;;;10.27;;
2564;SDS011;1292;48.020;7.822;2022-10-19T18:20:44;12.47;;;10.97;;
2564;SDS011;1292;48.020;7.822;2022-10-19T18:23:11;13.40;;;9.90;;
2564;SDS011;1292;48.020;7.822;2022-10-19T18:25:38;12.97;;;9.80;;
2564;SDS011;1292;48.020;7.822;2022-10-19T18:28:05;10.07;;;8.93;;
2564;SDS011;1292;48.020;7.822;2022-10-19T18:30:33;10.30;;;9.20;;
2564;SDS011;1292;48.020;7.822;2022-10-19T18:33:01;12.20;;;8.60;;
2564;SDS011;1292;48.020;7.822;2022-10-19T18:35:28;9.17;;;8.20;;
2564;SDS011;1292;48.020;7.822;2022-10-19T18:37:56;10.07;;;7.47;;
2564;SDS011;1292;48.020;7.822;2022-10-19T18:40:23;10.80;;;8.73;;
2564;SDS011;1292;48.020;7.822;2022-10-19T18:42:50;8.63;;;7.80;;
2564;SDS011;1292;48.020;7.822;2022-10-19T18:45:17;9.00;;;7.40;;
2564;SDS011;1292;48.020;7.822;2022-10-19T18:47:44;9.90;;;8.90;;
2564;SDS011;1292;48.020;7.822;2022-10-19T18:50:11;10.10;;;7.97;;
2564;SDS011;1292;48.020;7.822;2022-10-19T18:52:38;9.20;;;8.20;;
2564;SDS011;1292;48.020;7.822;2022-10-19T18:55:06;9.23;;;8.23;;
2564;SDS011;1292;48.020;7.822;2022-10-19T18:57:34;16.33;;;9.17;;
2564;SDS011;1292;48.020;7.822;2022-10-19T19:00:01;9.73;;;8.10;;
2564;SDS011;1292;48.020;7.822;2022-10-19T19:02:28;10.30;;;8.33;;
2564;SDS011;1292;48.020;7.822;2022-10-19T19:04:55;11.77;;;8.40;;
2564;SDS011;1292;48.020;7.822;2022-10-19T19:07:22;10.23;;;8.17;;
2564;SDS011;1292;48.020;7.822;2022-10-19T19:09:48;11.37;;;8.87;;
2564;SDS011;1292;48.020;7.822;2022-10-19T19:12:17;10.30;;;8.63;;
2564;SDS011;1292;48.020;7.822;2022-10-19T19:14:44;11.80;;;8.73;;
2564;SDS011;1292;48.020;7.822;2022-10-19T19:17:11;12.83;;;10.37;;
2564;SDS011;1292;48.020;7.822;2022-10-19T19:19:38;12.23;;;9.50;;
2564;SDS011;1292;48.020;7.822;2022-10-19T19:22:05;11.87;;;9.90;;
2564;SDS011;1292;48.020;7.822;2022-10-19T19:24:32;11.07;;;8.70;;
2564;SDS011;1292;48.020;7.822;2022-10-19T19:26:59;13.40;;;9.20;;
2564;SDS011;1292;48.020;7.822;2022-10-19T19:29:28;9.30;;;7.50;;
2564;SDS011;1292;48.020;7.822;2022-10-19T19:31:55;13.07;;;8.27;;
2564;SDS011;1292;48.020;7.822;2022-10-19T19:34:22;10.47;;;8.83;;
2564;SDS011;1292;48.020;7.822;2022-10-19T19:36:49;9.70;;;8.77;;
2564;SDS011;1292;48.020;7.822;2022-10-19T19:39:17;11.33;;;8.30;;
2564;SDS011;1292;48.020;7.822;2022-10-19T19:41:46;9.77;;;7.33;;
2564;SDS011;1292;48.020;7.822;2022-10-19T19:44:13;8.60;;;7.77;;
2564;SDS011;1292;48.020;7.822;2022-10-19T19:46:41;8.90;;;8.00;;
2564;SDS011;1292;48.020;7.822;2022-10-19T19:49:08;8.90;;;7.80;;
2564;SDS011;1292;48.020;7.822;2022-10-19T19:51:35;8.30;;;7.40;;
2564;SDS011;1292;48.020;7.822;2022-10-19T19:54:02;10.40;;;8.30;;
2564;SDS011;1292;48.020;7.822;2022-10-19T19:56:29;9.63;;;8.70;;
2564;SDS011;1292;48.020;7.822;2022-10-19T19:58:57;9.40;;;8.50;;
2564;SDS011;1292;48.020;7.822;2022-10-19T20:01:27;9.90;;;7.90;;
2564;SDS011;1292;48.020;7.822;2022-10-19T20:03:57;11.20;;;8.27;;
2564;SDS011;1292;48.020;7.822;2022-10-19T20:06:26;10.20;;;9.03;;
2564;SDS011;1292;48.020;7.822;2022-10-19T20:08:54;10.50;;;9.37;;
2564;SDS011;1292;48.020;7.822;2022-10-19T20:11:22;10.33;;;9.17;;
2564;SDS011;1292;48.020;7.822;2022-10-19T20:13:50;9.97;;;9.07;;
2564;SDS011;1292;48.020;7.822;2022-10-19T20:16:17;11.53;;;10.00;;
2564;SDS011;1292;48.020;7.822;2022-10-19T20:18:46;11.77;;;9.60;;
2564;SDS011;1292;48.020;7.822;2022-10-19T20:21:15;10.47;;;8.80;;
2564;SDS011;1292;48.020;7.822;2022-10-19T20:23:43;12.40;;;10.07;;
2564;SDS011;1292;48.020;7.822;2022-10-19T20:26:13;13.50;;;10.83;;
2564;SDS011;1292;48.020;7.822;2022-10-19T20:28:40;11.47;;;9.63;;
2564;SDS011;1292;48.020;7.822;2022-10-19T20:31:07;15.10;;;10.87;;
2564;SDS011;1292;48.020;7.822;2022-10-19T20:33:36;9.63;;;8.67;;
2564;SDS011;1292;48.020;7.822;2022-10-19T20:36:04;11.00;;;8.87;;
2564;SDS011;1292;48.020;7.822;2022-10-19T20:38:35;11.00;;;9.20;;
2564;SDS011;1292;48.020;7.822;2022-10-19T20:41:03;9.70;;;7.83;;
2564;SDS011;1292;48.020;7.822;2022-10-19T20:43:31;18.63;;;9.30;;
2564;SDS011;1292;48.020;7.822;2022-10-19T20:46:02;12.03;;;10.03;;
2564;SDS011;1292;48.020;7.822;2022-10-19T20:48:29;10.77;;;8.87;;
2564;SDS011;1292;48.020;7.822;2022-10-19T20:51:06;13.20;;;8.80;;
2564;SDS011;1292;48.020;7.822;2022-10-19T20:53:38;9.50;;;8.60;;
2564;SDS011;1292;48.020;7.822;2022-10-19T20:56:09;11.70;;;9.93;;
2564;SDS011;1292;48.020;7.822;2022-10-19T20:58:37;11.33;;;10.17;;
